sensor_id;sensor_type;location;lat;lon;timestamp;P1;durP1;ratioP1;P2;durP2;ratioP2
24216;SDS011;12356;49.386;8.688;2022-10-26T00:01:08;5.15;;;1.70;;
24216;SDS011;12356;49.386;8.688;2022-10-26T00:03:41;6.13;;;1.60;;
24216;SDS011;12356;49.386;8.688;2022-10-26T00:06:14;6.82;;;1.75;;
24216;SDS011;12356;49.386;8.688;2022-10-26T00:08:46;9.98;;;1.55;;
24216;SDS011;12356;49.386;8.688;2022-10-26T00:11:17;4.18;;;1.48;;
24216;SDS011;12356;49.386;8.688;2022-10-26T00:13:48;8.23;;;1.90;;
24216;SDS011;12356;49.386;8.688;2022-10-26T00:16:20;2.33;;;1.30;;
24216;SDS011;12356;49.386;8.688;2022-10-26T00:18:54;9.23;;;1.58;;
24216;SDS011;12356;49.386;8.688;2022-10-26T00:21:25;7.22;;;1.80;;
24216;SDS011;12356;49.386;8.688;2022-10-26T00:23:58;7.45;;;1.75;;
24216;SDS011;12356;49.386;8.688;2022-10-26T00:26:29;4.38;;;1.48;;
24216;SDS011;12356;49.386;8.688;2022-10-26T00:28:59;3.03;;;1.60;;
24216;SDS011;12356;49.386;8.688;2022-10-26T00:31:30;2.95;;;1.55;;
24216;SDS011;12356;49.386;8.688;2022-10-26T00:34:02;6.38;;;1.77;;
24216;SDS011;12356;49.386;8.688;2022-10-26T00:36:32;8.10;;;1.80;;
24216;SDS011;12356;49.386;8.688;2022-10-26T00:39:03;3.47;;;1.50;;
24216;SDS011;12356;49.386;8.688;2022-10-26T00:41:34;5.97;;;1.70;;
24216;SDS011;12356;49.386;8.688;2022-10-26T00:47:20;7.22;;;1.40;;
24216;SDS011;12356;49.386;8.688;2022-10-26T00:50:09;4.75;;;1.58;;
24216;SDS011;12356;49.386;8.688;2022-10-26T00:52:44;3.47;;;1.50;;
24216;SDS011;12356;49.386;8.688;2022-10-26T00:55:15;4.82;;;1.63;;
24216;SDS011;12356;49.386;8.688;2022-10-26T00:57:50;3.90;;;1.40;;
24216;SDS011;12356;49.386;8.688;2022-10-26T01:00:22;4.88;;;1.60;;
24216;SDS011;12356;49.386;8.688;2022-10-26T01:02:53;5.72;;;1.45;;
24216;SDS011;12356;49.386;8.688;2022-10-26T01:05:26;6.00;;;1.15;;
24216;SDS011;12356;49.386;8.688;2022-10-26T01:07:57;5.05;;;1.50;;
24216;SDS011;12356;49.386;8.688;2022-10-26T01:10:28;4.82;;;1.55;;
24216;SDS011;12356;49.386;8.688;2022-10-26T01:12:59;4.93;;;1.52;;
24216;SDS011;12356;49.386;8.688;2022-10-26T01:15:36;2.70;;;1.20;;
24216;SDS011;12356;49.386;8.688;2022-10-26T01:29:33;2.10;;;1.30;;
24216;SDS011;12356;49.386;8.688;2022-10-26T01:32:13;5.07;;;1.65;;
24216;SDS011;12356;49.386;8.688;2022-10-26T01:34:56;6.18;;;1.40;;
24216;SDS011;12356;49.386;8.688;2022-10-26T01:37:35;2.67;;;1.15;;
24216;SDS011;12356;49.386;8.688;2022-10-26T01:40:09;2.92;;;1.17;;
24216;SDS011;12356;49.386;8.688;2022-10-26T01:42:48;2.35;;;1.30;;
24216;SDS011;12356;49.386;8.688;2022-10-26T01:45:22;7.95;;;1.65;;
24216;SDS011;12356;49.386;8.688;2022-10-26T01:47:54;5.15;;;1.45;;
24216;SDS011;12356;49.386;8.688;2022-10-26T01:50:27;4.40;;;1.20;;
24216;SDS011;12356;49.386;8.688;2022-10-26T01:52:59;3.78;;;1.23;;
24216;SDS011;12356;49.386;8.688;2022-10-26T01:55:39;3.65;;;1.30;;
24216;SDS011;12356;49.386;8.688;2022-10-26T02:09:08;3.05;;;1.33;;
24216;SDS011;12356;49.386;8.688;2022-10-26T02:11:50;4.97;;;1.30;;
24216;SDS011;12356;49.386;8.688;2022-10-26T02:19:53;1.73;;;1.20;;
24216;SDS011;12356;49.386;8.688;2022-10-26T02:22:32;3.05;;;1.10;;
24216;SDS011;12356;49.386;8.688;2022-10-26T02:25:08;3.80;;;1.30;;
24216;SDS011;12356;49.386;8.688;2022-10-26T02:27:48;5.85;;;1.38;;
24216;SDS011;12356;49.386;8.688;2022-10-26T02:30:22;4.45;;;1.42;;
24216;SDS011;12356;49.386;8.688;2022-10-26T02:32:53;5.80;;;1.38;;
24216;SDS011;12356;49.386;8.688;2022-10-26T02:35:29;2.90;;;1.30;;
24216;SDS011;12356;49.386;8.688;2022-10-26T02:38:03;5.10;;;1.17;;
24216;SDS011;12356;49.386;8.688;2022-10-26T02:40:37;5.60;;;1.50;;
24216;SDS011;12356;49.386;8.688;2022-10-26T02:43:09;2.72;;;1.30;;
24216;SDS011;12356;49.386;8.688;2022-10-26T02:45:45;4.95;;;1.35;;
24216;SDS011;12356;49.386;8.688;2022-10-26T02:48:18;9.35;;;1.60;;
24216;SDS011;12356;49.386;8.688;2022-10-26T02:53:39;4.75;;;1.27;;
24216;SDS011;12356;49.386;8.688;2022-10-26T02:59:36;6.75;;;1.50;;
24216;SDS011;12356;49.386;8.688;2022-10-26T03:02:12;6.78;;;1.70;;
24216;SDS011;12356;49.386;8.688;2022-10-26T03:04:45;5.78;;;1.52;;
24216;SDS011;12356;49.386;8.688;2022-10-26T03:07:22;3.05;;;1.23;;
24216;SDS011;12356;49.386;8.688;2022-10-26T03:09:53;3.20;;;1.20;;
24216;SDS011;12356;49.386;8.688;2022-10-26T03:12:24;2.67;;;1.35;;
24216;SDS011;12356;49.386;8.688;2022-10-26T03:14:54;3.90;;;1.65;;
24216;SDS011;12356;49.386;8.688;2022-10-26T03:17:25;3.03;;;1.60;;
24216;SDS011;12356;49.386;8.688;2022-10-26T03:19:56;4.45;;;1.45;;
24216;SDS011;12356;49.386;8.688;2022-10-26T03:22:26;4.78;;;1.45;;
24216;SDS011;12356;49.386;8.688;2022-10-26T03:24:57;4.72;;;1.73;;
24216;SDS011;12356;49.386;8.688;2022-10-26T03:27:27;5.78;;;1.65;;
24216;SDS011;12356;49.386;8.688;2022-10-26T03:29:58;4.68;;;1.50;;
24216;SDS011;12356;49.386;8.688;2022-10-26T03:32:29;3.78;;;1.60;;
24216;SDS011;12356;49.386;8.688;2022-10-26T03:35:00;3.88;;;1.55;;
24216;SDS011;12356;49.386;8.688;2022-10-26T03:37:30;7.75;;;1.70;;
24216;SDS011;12356;49.386;8.688;2022-10-26T03:40:01;4.80;;;1.50;;
24216;SDS011;12356;49.386;8.688;2022-10-26T03:42:32;2.90;;;1.40;;
24216;SDS011;12356;49.386;8.688;2022-10-26T03:45:05;3.72;;;1.40;;
24216;SDS011;12356;49.386;8.688;2022-10-26T03:47:43;6.43;;;1.70;;
24216;SDS011;12356;49.386;8.688;2022-10-26T03:50:17;6.45;;;1.60;;
24216;SDS011;12356;49.386;8.688;2022-10-26T03:52:49;3.97;;;1.40;;
24216;SDS011;12356;49.386;8.688;2022-10-26T03:55:19;8.30;;;1.75;;
24216;SDS011;12356;49.386;8.688;2022-10-26T03:57:50;2.83;;;1.40;;
24216;SDS011;12356;49.386;8.688;2022-10-26T04:00:20;2.65;;;1.45;;
24216;SDS011;12356;49.386;8.688;2022-10-26T04:02:55;7.50;;;1.80;;
24216;SDS011;12356;49.386;8.688;2022-10-26T04:05:27;4.38;;;1.50;;
24216;SDS011;12356;49.386;8.688;2022-10-26T04:07:59;1.65;;;1.40;;
24216;SDS011;12356;49.386;8.688;2022-10-26T04:10:33;4.90;;;1.50;;
24216;SDS011;12356;49.386;8.688;2022-10-26T04:13:04;2.75;;;1.42;;
24216;SDS011;12356;49.386;8.688;2022-10-26T04:15:34;3.60;;;1.50;;
24216;SDS011;12356;49.386;8.688;2022-10-26T04:18:05;3.40;;;1.33;;
24216;SDS011;12356;49.386;8.688;2022-10-26T04:20:36;6.63;;;1.50;;
24216;SDS011;12356;49.386;8.688;2022-10-26T04:23:12;3.38;;;1.65;;
24216;SDS011;12356;49.386;8.688;2022-10-26T04:25:44;6.90;;;1.60;;
24216;SDS011;12356;49.386;8.688;2022-10-26T04:28:14;5.35;;;1.75;;
24216;SDS011;12356;49.386;8.688;2022-10-26T04:30:46;2.75;;;1.60;;
24216;SDS011;12356;49.386;8.688;2022-10-26T04:33:17;5.88;;;1.60;;
24216;SDS011;12356;49.386;8.688;2022-10-26T04:35:47;5.10;;;1.50;;
24216;SDS011;12356;49.386;8.688;2022-10-26T04:38:18;3.80;;;1.45;;
24216;SDS011;12356;49.386;8.688;2022-10-26T04:40:49;3.05;;;1.50;;
24216;SDS011;12356;49.386;8.688;2022-10-26T04:43:20;3.95;;;1.60;;
24216;SDS011;12356;49.386;8.688;2022-10-26T04:45:54;5.03;;;1.50;;
24216;SDS011;12356;49.386;8.688;2022-10-26T04:48:25;3.65;;;1.40;;
24216;SDS011;12356;49.386;8.688;2022-10-26T04:50:59;3.40;;;1.70;;
24216;SDS011;12356;49.386;8.688;2022-10-26T04:53:30;3.83;;;1.77;;
24216;SDS011;12356;49.386;8.688;2022-10-26T04:56:02;4.55;;;1.55;;
24216;SDS011;12356;49.386;8.688;2022-10-26T04:58:33;4.65;;;1.85;;
24216;SDS011;12356;49.386;8.688;2022-10-26T05:01:04;5.68;;;1.77;;
24216;SDS011;12356;49.386;8.688;2022-10-26T05:03:34;6.20;;;2.20;;
24216;SDS011;12356;49.386;8.688;2022-10-26T05:06:05;5.35;;;1.90;;
24216;SDS011;12356;49.386;8.688;2022-10-26T05:08:36;9.05;;;1.70;;
24216;SDS011;12356;49.386;8.688;2022-10-26T05:11:06;4.63;;;1.70;;
24216;SDS011;12356;49.386;8.688;2022-10-26T05:13:37;3.55;;;1.40;;
24216;SDS011;12356;49.386;8.688;2022-10-26T05:16:07;7.07;;;2.00;;
24216;SDS011;12356;49.386;8.688;2022-10-26T05:18:38;4.25;;;1.50;;
24216;SDS011;12356;49.386;8.688;2022-10-26T05:21:09;5.13;;;1.50;;
24216;SDS011;12356;49.386;8.688;2022-10-26T05:23:41;3.25;;;1.67;;
24216;SDS011;12356;49.386;8.688;2022-10-26T05:26:12;4.78;;;1.42;;
24216;SDS011;12356;49.386;8.688;2022-10-26T05:28:42;8.43;;;1.75;;
24216;SDS011;12356;49.386;8.688;2022-10-26T05:31:13;7.65;;;1.80;;
24216;SDS011;12356;49.386;8.688;2022-10-26T05:33:47;4.63;;;1.98;;
24216;SDS011;12356;49.386;8.688;2022-10-26T05:36:18;7.90;;;2.10;;
24216;SDS011;12356;49.386;8.688;2022-10-26T05:38:49;5.38;;;2.00;;
24216;SDS011;12356;49.386;8.688;2022-10-26T05:41:20;9.30;;;1.90;;
24216;SDS011;12356;49.386;8.688;2022-10-26T05:43:51;3.75;;;1.70;;
24216;SDS011;12356;49.386;8.688;2022-10-26T05:46:21;6.70;;;1.77;;
24216;SDS011;12356;49.386;8.688;2022-10-26T05:48:52;5.28;;;1.80;;
24216;SDS011;12356;49.386;8.688;2022-10-26T05:51:22;6.07;;;1.92;;
24216;SDS011;12356;49.386;8.688;2022-10-26T05:53:53;5.80;;;2.35;;
24216;SDS011;12356;49.386;8.688;2022-10-26T05:59:12;5.75;;;1.65;;
24216;SDS011;12356;49.386;8.688;2022-10-26T06:04:44;5.22;;;1.40;;
24216;SDS011;12356;49.386;8.688;2022-10-26T06:07:18;3.97;;;1.60;;
24216;SDS011;12356;49.386;8.688;2022-10-26T06:09:49;3.53;;;1.57;;
24216;SDS011;12356;49.386;8.688;2022-10-26T06:12:20;7.22;;;1.80;;
24216;SDS011;12356;49.386;8.688;2022-10-26T06:14:51;2.75;;;1.50;;
24216;SDS011;12356;49.386;8.688;2022-10-26T06:31:10;3.70;;;2.00;;
24216;SDS011;12356;49.386;8.688;2022-10-26T06:33:43;4.15;;;1.60;;
24216;SDS011;12356;49.386;8.688;2022-10-26T06:36:21;6.40;;;1.50;;
24216;SDS011;12356;49.386;8.688;2022-10-26T06:38:55;4.40;;;1.75;;
24216;SDS011;12356;49.386;8.688;2022-10-26T06:41:31;6.63;;;2.38;;
24216;SDS011;12356;49.386;8.688;2022-10-26T06:44:03;2.72;;;1.50;;
24216;SDS011;12356;49.386;8.688;2022-10-26T06:54:44;5.93;;;1.95;;
24216;SDS011;12356;49.386;8.688;2022-10-26T06:57:22;6.28;;;1.70;;
24216;SDS011;12356;49.386;8.688;2022-10-26T06:59:56;7.93;;;1.92;;
24216;SDS011;12356;49.386;8.688;2022-10-26T07:02:32;4.00;;;1.70;;
24216;SDS011;12356;49.386;8.688;2022-10-26T07:05:03;6.35;;;1.83;;
24216;SDS011;12356;49.386;8.688;2022-10-26T07:07:34;7.18;;;1.70;;
24216;SDS011;12356;49.386;8.688;2022-10-26T07:10:09;4.25;;;1.75;;
24216;SDS011;12356;49.386;8.688;2022-10-26T07:12:40;3.53;;;1.70;;
24216;SDS011;12356;49.386;8.688;2022-10-26T07:15:11;5.32;;;2.10;;
24216;SDS011;12356;49.386;8.688;2022-10-26T07:17:45;6.28;;;1.80;;
24216;SDS011;12356;49.386;8.688;2022-10-26T07:20:19;6.80;;;1.85;;
24216;SDS011;12356;49.386;8.688;2022-10-26T07:22:51;6.85;;;1.90;;
24216;SDS011;12356;49.386;8.688;2022-10-26T07:25:23;4.55;;;1.60;;
24216;SDS011;12356;49.386;8.688;2022-10-26T07:27:58;5.30;;;1.90;;
24216;SDS011;12356;49.386;8.688;2022-10-26T07:30:29;4.78;;;1.80;;
24216;SDS011;12356;49.386;8.688;2022-10-26T07:33:00;4.75;;;1.70;;
24216;SDS011;12356;49.386;8.688;2022-10-26T07:35:42;5.75;;;1.80;;
24216;SDS011;12356;49.386;8.688;2022-10-26T07:38:12;3.47;;;1.90;;
24216;SDS011;12356;49.386;8.688;2022-10-26T07:40:43;4.85;;;2.17;;
24216;SDS011;12356;49.386;8.688;2022-10-26T07:43:14;7.07;;;1.90;;
24216;SDS011;12356;49.386;8.688;2022-10-26T07:45:47;6.50;;;2.38;;
24216;SDS011;12356;49.386;8.688;2022-10-26T07:48:19;5.75;;;2.20;;
24216;SDS011;12356;49.386;8.688;2022-10-26T07:50:50;6.40;;;2.70;;
24216;SDS011;12356;49.386;8.688;2022-10-26T07:53:21;5.72;;;2.70;;
24216;SDS011;12356;49.386;8.688;2022-10-26T07:55:52;5.40;;;2.17;;
24216;SDS011;12356;49.386;8.688;2022-10-26T07:58:24;5.22;;;1.90;;
24216;SDS011;12356;49.386;8.688;2022-10-26T08:00:56;3.92;;;1.88;;
24216;SDS011;12356;49.386;8.688;2022-10-26T08:03:26;5.95;;;2.03;;
24216;SDS011;12356;49.386;8.688;2022-10-26T08:05:57;6.60;;;2.08;;
24216;SDS011;12356;49.386;8.688;2022-10-26T08:08:28;5.97;;;1.98;;
24216;SDS011;12356;49.386;8.688;2022-10-26T08:10:59;4.65;;;1.90;;
24216;SDS011;12356;49.386;8.688;2022-10-26T08:13:30;3.17;;;1.92;;
24216;SDS011;12356;49.386;8.688;2022-10-26T08:16:02;4.70;;;2.15;;
24216;SDS011;12356;49.386;8.688;2022-10-26T08:18:34;5.90;;;2.22;;
24216;SDS011;12356;49.386;8.688;2022-10-26T08:21:06;8.90;;;2.30;;
24216;SDS011;12356;49.386;8.688;2022-10-26T08:23:38;5.45;;;2.05;;
24216;SDS011;12356;49.386;8.688;2022-10-26T08:26:10;7.88;;;2.42;;
24216;SDS011;12356;49.386;8.688;2022-10-26T08:28:40;7.05;;;1.92;;
24216;SDS011;12356;49.386;8.688;2022-10-26T08:31:11;10.57;;;2.53;;
24216;SDS011;12356;49.386;8.688;2022-10-26T08:33:42;6.50;;;2.30;;
24216;SDS011;12356;49.386;8.688;2022-10-26T08:36:13;4.82;;;2.30;;
24216;SDS011;12356;49.386;8.688;2022-10-26T08:38:48;5.05;;;2.35;;
24216;SDS011;12356;49.386;8.688;2022-10-26T08:41:22;7.65;;;2.40;;
24216;SDS011;12356;49.386;8.688;2022-10-26T08:44:19;5.35;;;2.05;;
24216;SDS011;12356;49.386;8.688;2022-10-26T08:46:59;3.92;;;1.60;;
24216;SDS011;12356;49.386;8.688;2022-10-26T08:49:52;5.32;;;2.20;;
24216;SDS011;12356;49.386;8.688;2022-10-26T08:52:43;6.00;;;2.60;;
24216;SDS011;12356;49.386;8.688;2022-10-26T08:55:20;6.68;;;2.00;;
24216;SDS011;12356;49.386;8.688;2022-10-26T08:57:58;7.10;;;2.00;;
24216;SDS011;12356;49.386;8.688;2022-10-26T09:00:31;6.90;;;2.20;;
24216;SDS011;12356;49.386;8.688;2022-10-26T09:03:07;7.55;;;2.00;;
24216;SDS011;12356;49.386;8.688;2022-10-26T09:13:56;7.68;;;2.28;;
24216;SDS011;12356;49.386;8.688;2022-10-26T09:16:41;11.63;;;2.45;;
24216;SDS011;12356;49.386;8.688;2022-10-26T09:19:36;6.60;;;2.47;;
24216;SDS011;12356;49.386;8.688;2022-10-26T09:24:56;4.97;;;2.25;;
24216;SDS011;12356;49.386;8.688;2022-10-26T09:27:33;8.25;;;2.17;;
24216;SDS011;12356;49.386;8.688;2022-10-26T09:30:13;4.07;;;2.20;;
24216;SDS011;12356;49.386;8.688;2022-10-26T09:32:59;9.73;;;2.20;;
24216;SDS011;12356;49.386;8.688;2022-10-26T09:35:48;7.57;;;2.65;;
24216;SDS011;12356;49.386;8.688;2022-10-26T09:38:31;6.20;;;2.55;;
24216;SDS011;12356;49.386;8.688;2022-10-26T09:41:18;6.43;;;2.25;;
24216;SDS011;12356;49.386;8.688;2022-10-26T09:43:56;11.20;;;2.90;;
24216;SDS011;12356;49.386;8.688;2022-10-26T09:49:40;7.68;;;2.50;;
24216;SDS011;12356;49.386;8.688;2022-10-26T09:52:19;11.60;;;3.20;;
24216;SDS011;12356;49.386;8.688;2022-10-26T09:54:50;7.05;;;2.80;;
24216;SDS011;12356;49.386;8.688;2022-10-26T09:57:21;6.82;;;2.42;;
24216;SDS011;12356;49.386;8.688;2022-10-26T09:59:52;4.85;;;2.65;;
24216;SDS011;12356;49.386;8.688;2022-10-26T10:02:31;6.13;;;2.35;;
24216;SDS011;12356;49.386;8.688;2022-10-26T10:13:32;5.63;;;2.75;;
24216;SDS011;12356;49.386;8.688;2022-10-26T10:16:07;6.07;;;3.28;;
24216;SDS011;12356;49.386;8.688;2022-10-26T10:18:56;12.05;;;3.25;;
24216;SDS011;12356;49.386;8.688;2022-10-26T10:21:35;7.82;;;2.53;;
24216;SDS011;12356;49.386;8.688;2022-10-26T10:26:58;11.38;;;3.10;;
24216;SDS011;12356;49.386;8.688;2022-10-26T10:29:30;8.15;;;2.47;;
24216;SDS011;12356;49.386;8.688;2022-10-26T10:32:16;6.43;;;2.78;;
24216;SDS011;12356;49.386;8.688;2022-10-26T10:35:21;8.40;;;3.00;;
24216;SDS011;12356;49.386;8.688;2022-10-26T10:37:53;12.32;;;3.10;;
24216;SDS011;12356;49.386;8.688;2022-10-26T10:40:27;7.35;;;3.05;;
24216;SDS011;12356;49.386;8.688;2022-10-26T10:43:04;6.90;;;3.08;;
24216;SDS011;12356;49.386;8.688;2022-10-26T10:45:49;10.53;;;2.63;;
24216;SDS011;12356;49.386;8.688;2022-10-26T10:48:26;7.13;;;2.80;;
24216;SDS011;12356;49.386;8.688;2022-10-26T10:50:59;8.82;;;3.13;;
24216;SDS011;12356;49.386;8.688;2022-10-26T11:02:01;6.80;;;2.70;;
24216;SDS011;12356;49.386;8.688;2022-10-26T11:08:26;8.85;;;2.70;;
24216;SDS011;12356;49.386;8.688;2022-10-26T11:14:15;9.38;;;2.92;;
24216;SDS011;12356;49.386;8.688;2022-10-26T11:16:49;5.15;;;2.22;;
24216;SDS011;12356;49.386;8.688;2022-10-26T11:19:46;8.07;;;2.80;;
24216;SDS011;12356;49.386;8.688;2022-10-26T11:22:27;5.60;;;2.58;;
24216;SDS011;12356;49.386;8.688;2022-10-26T11:25:10;13.73;;;2.60;;
24216;SDS011;12356;49.386;8.688;2022-10-26T11:27:46;14.55;;;3.17;;
24216;SDS011;12356;49.386;8.688;2022-10-26T11:30:23;9.90;;;2.70;;
24216;SDS011;12356;49.386;8.688;2022-10-26T11:33:02;6.28;;;3.15;;
24216;SDS011;12356;49.386;8.688;2022-10-26T11:36:17;8.05;;;2.50;;
24216;SDS011;12356;49.386;8.688;2022-10-26T11:39:00;7.95;;;2.90;;
24216;SDS011;12356;49.386;8.688;2022-10-26T11:44:33;6.85;;;2.70;;
24216;SDS011;12356;49.386;8.688;2022-10-26T11:47:13;8.90;;;2.78;;
24216;SDS011;12356;49.386;8.688;2022-10-26T11:49:50;6.63;;;2.40;;
24216;SDS011;12356;49.386;8.688;2022-10-26T11:52:43;7.45;;;2.65;;
24216;SDS011;12356;49.386;8.688;2022-10-26T11:55:17;10.75;;;2.40;;
24216;SDS011;12356;49.386;8.688;2022-10-26T11:57:51;5.85;;;2.40;;
24216;SDS011;12356;49.386;8.688;2022-10-26T12:00:23;8.93;;;2.40;;
24216;SDS011;12356;49.386;8.688;2022-10-26T12:02:56;7.80;;;2.20;;
24216;SDS011;12356;49.386;8.688;2022-10-26T12:08:31;8.52;;;2.78;;
24216;SDS011;12356;49.386;8.688;2022-10-26T12:13:41;7.75;;;2.42;;
24216;SDS011;12356;49.386;8.688;2022-10-26T12:22:00;11.93;;;2.70;;
24216;SDS011;12356;49.386;8.688;2022-10-26T12:24:32;6.40;;;2.38;;
24216;SDS011;12356;49.386;8.688;2022-10-26T12:27:04;8.60;;;2.50;;
24216;SDS011;12356;49.386;8.688;2022-10-26T12:29:43;7.25;;;2.60;;
24216;SDS011;12356;49.386;8.688;2022-10-26T12:35:02;4.13;;;2.13;;
24216;SDS011;12356;49.386;8.688;2022-10-26T12:37:52;10.43;;;2.58;;
24216;SDS011;12356;49.386;8.688;2022-10-26T12:45:46;8.30;;;2.58;;
24216;SDS011;12356;49.386;8.688;2022-10-26T12:48:43;8.30;;;2.45;;
24216;SDS011;12356;49.386;8.688;2022-10-26T12:53:53;7.30;;;2.40;;
24216;SDS011;12356;49.386;8.688;2022-10-26T12:56:29;7.25;;;2.30;;
24216;SDS011;12356;49.386;8.688;2022-10-26T12:59:33;11.32;;;2.50;;
24216;SDS011;12356;49.386;8.688;2022-10-26T13:02:38;6.60;;;2.70;;
24216;SDS011;12356;49.386;8.688;2022-10-26T13:08:18;7.00;;;2.40;;
24216;SDS011;12356;49.386;8.688;2022-10-26T13:10:59;7.47;;;2.33;;
24216;SDS011;12356;49.386;8.688;2022-10-26T13:13:32;13.27;;;2.92;;
24216;SDS011;12356;49.386;8.688;2022-10-26T13:16:04;8.30;;;2.78;;
24216;SDS011;12356;49.386;8.688;2022-10-26T13:18:41;8.38;;;2.35;;
24216;SDS011;12356;49.386;8.688;2022-10-26T13:21:18;12.18;;;2.65;;
24216;SDS011;12356;49.386;8.688;2022-10-26T13:26:25;9.25;;;2.78;;
24216;SDS011;12356;49.386;8.688;2022-10-26T13:28:57;11.57;;;2.47;;
24216;SDS011;12356;49.386;8.688;2022-10-26T13:34:19;9.20;;;2.67;;
24216;SDS011;12356;49.386;8.688;2022-10-26T13:37:05;9.20;;;2.25;;
24216;SDS011;12356;49.386;8.688;2022-10-26T13:39:49;12.35;;;2.60;;
24216;SDS011;12356;49.386;8.688;2022-10-26T13:45:53;9.57;;;2.20;;
24216;SDS011;12356;49.386;8.688;2022-10-26T13:48:44;14.18;;;2.90;;
24216;SDS011;12356;49.386;8.688;2022-10-26T13:51:17;8.55;;;2.40;;
24216;SDS011;12356;49.386;8.688;2022-10-26T13:54:01;7.97;;;2.50;;
24216;SDS011;12356;49.386;8.688;2022-10-26T13:56:53;10.38;;;2.63;;
24216;SDS011;12356;49.386;8.688;2022-10-26T13:59:30;7.82;;;2.60;;
24216;SDS011;12356;49.386;8.688;2022-10-26T14:05:00;8.57;;;2.50;;
24216;SDS011;12356;49.386;8.688;2022-10-26T14:12:59;5.95;;;2.30;;
24216;SDS011;12356;49.386;8.688;2022-10-26T14:15:30;8.73;;;2.28;;
24216;SDS011;12356;49.386;8.688;2022-10-26T14:18:02;8.03;;;2.40;;
24216;SDS011;12356;49.386;8.688;2022-10-26T14:20:33;5.43;;;2.20;;
24216;SDS011;12356;49.386;8.688;2022-10-26T14:23:04;9.55;;;2.40;;
24216;SDS011;12356;49.386;8.688;2022-10-26T14:25:54;5.88;;;2.28;;
24216;SDS011;12356;49.386;8.688;2022-10-26T14:28:26;4.20;;;2.20;;
24216;SDS011;12356;49.386;8.688;2022-10-26T14:33:58;5.63;;;2.25;;
24216;SDS011;12356;49.386;8.688;2022-10-26T14:36:40;7.20;;;2.13;;
24216;SDS011;12356;49.386;8.688;2022-10-26T14:41:52;6.53;;;2.20;;
24216;SDS011;12356;49.386;8.688;2022-10-26T14:44:23;5.80;;;2.10;;
24216;SDS011;12356;49.386;8.688;2022-10-26T14:46:55;6.95;;;2.10;;
24216;SDS011;12356;49.386;8.688;2022-10-26T14:49:26;6.63;;;1.67;;
24216;SDS011;12356;49.386;8.688;2022-10-26T14:51:57;7.28;;;2.05;;
24216;SDS011;12356;49.386;8.688;2022-10-26T14:54:33;7.05;;;2.13;;
24216;SDS011;12356;49.386;8.688;2022-10-26T14:57:03;7.53;;;2.30;;
24216;SDS011;12356;49.386;8.688;2022-10-26T14:59:37;4.95;;;1.90;;
24216;SDS011;12356;49.386;8.688;2022-10-26T15:04:57;7.10;;;2.05;;
24216;SDS011;12356;49.386;8.688;2022-10-26T15:07:34;8.98;;;2.40;;
24216;SDS011;12356;49.386;8.688;2022-10-26T15:10:35;6.78;;;2.20;;
24216;SDS011;12356;49.386;8.688;2022-10-26T15:16:08;6.53;;;2.20;;
24216;SDS011;12356;49.386;8.688;2022-10-26T15:18:54;6.47;;;2.28;;
24216;SDS011;12356;49.386;8.688;2022-10-26T15:21:29;7.40;;;2.22;;
24216;SDS011;12356;49.386;8.688;2022-10-26T15:24:09;10.20;;;2.58;;
24216;SDS011;12356;49.386;8.688;2022-10-26T15:26:47;4.43;;;2.35;;
24216;SDS011;12356;49.386;8.688;2022-10-26T15:29:34;6.88;;;2.80;;
24216;SDS011;12356;49.386;8.688;2022-10-26T15:32:17;11.25;;;3.40;;
24216;SDS011;12356;49.386;8.688;2022-10-26T15:35:11;7.93;;;3.20;;
24216;SDS011;12356;49.386;8.688;2022-10-26T15:37:46;8.27;;;2.55;;
24216;SDS011;12356;49.386;8.688;2022-10-26T15:40:17;4.55;;;2.50;;
24216;SDS011;12356;49.386;8.688;2022-10-26T15:42:49;7.15;;;3.20;;
24216;SDS011;12356;49.386;8.688;2022-10-26T15:45:29;6.85;;;3.22;;
24216;SDS011;12356;49.386;8.688;2022-10-26T15:48:23;6.40;;;2.92;;
24216;SDS011;12356;49.386;8.688;2022-10-26T15:50:58;5.88;;;2.85;;
24216;SDS011;12356;49.386;8.688;2022-10-26T15:53:29;8.85;;;3.10;;
24216;SDS011;12356;49.386;8.688;2022-10-26T15:56:00;6.68;;;2.50;;
24216;SDS011;12356;49.386;8.688;2022-10-26T15:58:31;8.23;;;2.60;;
24216;SDS011;12356;49.386;8.688;2022-10-26T16:01:01;7.78;;;2.60;;
24216;SDS011;12356;49.386;8.688;2022-10-26T16:03:32;9.18;;;2.90;;
24216;SDS011;12356;49.386;8.688;2022-10-26T16:06:03;8.95;;;3.03;;
24216;SDS011;12356;49.386;8.688;2022-10-26T16:08:33;13.30;;;3.08;;
24216;SDS011;12356;49.386;8.688;2022-10-26T16:11:04;6.80;;;3.00;;
24216;SDS011;12356;49.386;8.688;2022-10-26T16:13:35;9.93;;;2.63;;
24216;SDS011;12356;49.386;8.688;2022-10-26T16:16:09;7.57;;;2.55;;
24216;SDS011;12356;49.386;8.688;2022-10-26T16:18:42;10.95;;;3.00;;
24216;SDS011;12356;49.386;8.688;2022-10-26T16:21:14;7.93;;;3.10;;
24216;SDS011;12356;49.386;8.688;2022-10-26T16:23:47;7.07;;;2.70;;
24216;SDS011;12356;49.386;8.688;2022-10-26T16:26:19;10.70;;;2.65;;
24216;SDS011;12356;49.386;8.688;2022-10-26T16:28:50;9.02;;;2.70;;
24216;SDS011;12356;49.386;8.688;2022-10-26T16:31:21;10.65;;;2.70;;
24216;SDS011;12356;49.386;8.688;2022-10-26T16:33:52;6.47;;;2.90;;
24216;SDS011;12356;49.386;8.688;2022-10-26T16:36:23;8.25;;;2.55;;
24216;SDS011;12356;49.386;8.688;2022-10-26T16:38:53;7.63;;;2.72;;
24216;SDS011;12356;49.386;8.688;2022-10-26T16:41:24;7.45;;;3.03;;
24216;SDS011;12356;49.386;8.688;2022-10-26T16:43:55;8.38;;;3.20;;
24216;SDS011;12356;49.386;8.688;2022-10-26T16:46:25;10.55;;;3.53;;
24216;SDS011;12356;49.386;8.688;2022-10-26T16:48:56;9.70;;;3.60;;
24216;SDS011;12356;49.386;8.688;2022-10-26T16:51:28;7.32;;;3.55;;
24216;SDS011;12356;49.386;8.688;2022-10-26T16:53:59;10.52;;;3.33;;
24216;SDS011;12356;49.386;8.688;2022-10-26T16:56:29;12.85;;;3.75;;
24216;SDS011;12356;49.386;8.688;2022-10-26T16:59:00;11.10;;;4.78;;
24216;SDS011;12356;49.386;8.688;2022-10-26T17:01:31;9.88;;;4.40;;
24216;SDS011;12356;49.386;8.688;2022-10-26T17:04:02;11.15;;;4.10;;
24216;SDS011;12356;49.386;8.688;2022-10-26T17:06:33;12.55;;;4.60;;
24216;SDS011;12356;49.386;8.688;2022-10-26T17:09:03;9.88;;;4.30;;
24216;SDS011;12356;49.386;8.688;2022-10-26T17:11:34;8.52;;;3.75;;
24216;SDS011;12356;49.386;8.688;2022-10-26T17:14:04;13.15;;;3.67;;
24216;SDS011;12356;49.386;8.688;2022-10-26T17:16:35;8.30;;;3.42;;
24216;SDS011;12356;49.386;8.688;2022-10-26T17:19:06;11.77;;;3.72;;
24216;SDS011;12356;49.386;8.688;2022-10-26T17:21:37;9.13;;;3.88;;
24216;SDS011;12356;49.386;8.688;2022-10-26T17:24:08;12.27;;;4.10;;
24216;SDS011;12356;49.386;8.688;2022-10-26T17:26:39;11.05;;;4.50;;
24216;SDS011;12356;49.386;8.688;2022-10-26T17:29:11;10.85;;;5.30;;
24216;SDS011;12356;49.386;8.688;2022-10-26T17:31:42;15.43;;;6.43;;
24216;SDS011;12356;49.386;8.688;2022-10-26T17:34:13;12.02;;;6.30;;
24216;SDS011;12356;49.386;8.688;2022-10-26T17:36:43;14.60;;;6.80;;
24216;SDS011;12356;49.386;8.688;2022-10-26T17:39:14;15.82;;;5.20;;
24216;SDS011;12356;49.386;8.688;2022-10-26T17:41:45;11.13;;;4.90;;
24216;SDS011;12356;49.386;8.688;2022-10-26T17:44:16;11.02;;;3.95;;
24216;SDS011;12356;49.386;8.688;2022-10-26T17:46:47;13.82;;;4.30;;
24216;SDS011;12356;49.386;8.688;2022-10-26T17:49:17;12.75;;;4.10;;
24216;SDS011;12356;49.386;8.688;2022-10-26T17:51:48;9.38;;;3.75;;
24216;SDS011;12356;49.386;8.688;2022-10-26T17:54:18;8.32;;;3.22;;
24216;SDS011;12356;49.386;8.688;2022-10-26T17:56:49;6.78;;;2.80;;
24216;SDS011;12356;49.386;8.688;2022-10-26T17:59:20;9.15;;;3.55;;
24216;SDS011;12356;49.386;8.688;2022-10-26T18:01:50;10.27;;;4.95;;
24216;SDS011;12356;49.386;8.688;2022-10-26T18:04:21;12.48;;;4.07;;
24216;SDS011;12356;49.386;8.688;2022-10-26T18:06:52;9.93;;;3.30;;
24216;SDS011;12356;49.386;8.688;2022-10-26T18:09:22;8.90;;;3.95;;
24216;SDS011;12356;49.386;8.688;2022-10-26T18:11:53;11.30;;;3.40;;